createdAt,value
2018-03-29T00:02:18.721Z,93261.48
2018-03-29T00:04:46.281Z,93263.97
2018-03-29T00:07:13.846Z,93259.46
2018-03-29T00:09:41.442Z,93265.63
2018-03-29T00:12:08.991Z,93257.39
2018-03-29T00:14:36.538Z,93259.04
2018-03-29T00:17:04.133Z,93245.92
2018-03-29T00:19:31.718Z,93246.33
2018-03-29T00:21:59.273Z,93245.09
2018-03-29T00:24:26.854Z,93242.23
2018-03-29T00:26:54.399Z,93245.52
2018-03-29T00:29:21.957Z,93245.11
2018-03-29T00:31:49.678Z,93249.23
2018-03-29T00:34:17.220Z,93245.12
2018-03-29T00:36:44.777Z,93240.63
2018-03-29T00:39:12.354Z,93244.30
2018-03-29T00:41:39.908Z,93246.38
2018-03-29T00:44:07.468Z,93241.84
2018-03-29T00:46:35.141Z,93240.64
2018-03-29T00:49:02.691Z,93234.88
2018-03-29T00:51:30.239Z,93233.67
2018-03-29T00:53:57.922Z,93237.34
2018-03-29T00:56:25.487Z,93237.36
2018-03-29T00:58:53.044Z,93234.07
2018-03-29T01:01:20.908Z,93237.78
2018-03-29T01:03:48.445Z,93233.25
2018-03-29T01:06:15.989Z,93229.17
2018-03-29T01:08:43.711Z,93225.47
2018-03-29T01:11:11.258Z,93224.66
2018-03-29T01:13:38.833Z,93226.31
2018-03-29T01:16:06.437Z,93221.78
2018-03-29T01:18:34.009Z,93220.54
2018-03-29T01:21:01.560Z,93211.94
2018-03-29T01:23:29.125Z,93200.05
2018-03-29T01:25:56.674Z,93199.64
2018-03-29T01:28:24.223Z,93194.30
2018-03-29T01:30:52.107Z,93194.31
2018-03-29T01:33:19.657Z,93202.11
2018-03-29T01:35:47.232Z,93195.95
2018-03-29T01:38:14.800Z,93202.52
2018-03-29T01:40:42.349Z,93207.02
2018-03-29T01:43:09.917Z,93199.25
2018-03-29T01:45:37.470Z,93201.71
2018-03-29T01:48:05.043Z,93207.44
2018-03-29T01:50:32.764Z,93209.91
2018-03-29T01:53:00.308Z,93214.02
2018-03-29T01:55:27.854Z,93211.97
2018-03-29T01:57:55.605Z,93213.19
2018-03-29T02:00:23.156Z,93207.05
2018-03-29T02:02:50.713Z,93210.75
2018-03-29T02:05:18.443Z,93208.28
2018-03-29T02:07:46.035Z,93210.73
2018-03-29T02:10:13.589Z,93205.81
2018-03-29T02:12:41.170Z,93201.71
2018-03-29T02:15:08.717Z,93196.39
2018-03-29T02:17:36.266Z,93203.78
2018-03-29T02:20:03.976Z,93198.44
2018-03-29T02:22:31.536Z,93203.75
2018-03-29T02:24:59.092Z,93200.09
2018-03-29T02:27:26.673Z,93201.30
2018-03-29T02:29:54.234Z,93205.41
2018-03-29T02:32:21.796Z,93208.70
2018-03-29T02:34:49.513Z,93209.91
2018-03-29T02:37:17.079Z,93213.61
2018-03-29T02:39:44.656Z,93216.09
2018-03-29T02:42:12.252Z,93218.55
2018-03-29T02:44:39.794Z,93217.31
2018-03-29T02:47:08.093Z,93221.81
2018-03-29T02:49:36.114Z,93216.48
2018-03-29T02:52:03.701Z,93220.59
2018-03-29T02:54:31.259Z,93220.59
2018-03-29T02:56:58.986Z,93221.41
2018-03-29T02:59:26.537Z,93223.05
2018-03-29T03:01:54.086Z,93224.70
2018-03-29T03:04:21.705Z,93230.84
2018-03-29T03:06:49.258Z,93223.06
2018-03-29T03:09:16.828Z,93235.36
2018-03-29T03:11:44.410Z,93236.61
2018-03-29T03:14:11.953Z,93232.50
2018-03-29T03:16:39.495Z,93232.91
2018-03-29T03:19:07.086Z,93226.73
2018-03-29T03:21:34.650Z,93222.64
2018-03-29T03:24:02.265Z,93217.33
2018-03-29T03:26:29.838Z,93216.51
2018-03-29T03:28:57.394Z,93218.55
2018-03-29T03:31:24.951Z,93216.48
2018-03-29T03:33:52.839Z,93214.46
2018-03-29T03:36:20.392Z,93212.81
2018-03-29T03:38:47.947Z,93209.95
2018-03-29T03:41:15.675Z,93210.35
2018-03-29T03:43:43.242Z,93205.84
2018-03-29T03:46:10.797Z,93203.80
2018-03-29T03:48:38.483Z,93206.25
2018-03-29T03:51:06.027Z,93209.92
2018-03-29T03:53:33.600Z,93206.66
2018-03-29T03:56:01.226Z,93211.98
2018-03-29T03:58:28.774Z,93223.44
2018-03-29T04:00:56.314Z,93218.12
2018-03-29T04:03:23.910Z,93223.86
2018-03-29T04:05:51.489Z,93223.05
2018-03-29T04:08:19.060Z,93228.78
2018-03-29T04:10:46.653Z,93225.92
2018-03-29T04:13:14.202Z,93226.31
2018-03-29T04:15:41.745Z,93231.25
2018-03-29T04:18:09.382Z,93232.91
2018-03-29T04:20:36.938Z,93235.34
2018-03-29T04:23:04.481Z,93243.16
2018-03-29T04:25:32.084Z,93239.46
2018-03-29T04:27:59.658Z,93241.10
2018-03-29T04:30:27.204Z,93245.19
2018-03-29T04:32:54.774Z,93244.77
2018-03-29T04:35:22.342Z,93247.19
2018-03-29T04:37:49.904Z,93245.06
2018-03-29T04:40:17.590Z,93248.67
2018-03-29T04:42:45.130Z,93240.13
2018-03-29T04:45:12.677Z,93235.89
2018-03-29T04:47:40.274Z,93236.84
2018-03-29T04:50:07.822Z,93231.11
2018-03-29T04:52:35.370Z,93224.49
2018-03-29T04:55:02.949Z,93216.81
2018-03-29T04:57:30.485Z,93227.56
2018-03-29T04:59:58.039Z,93220.70
2018-03-29T05:02:25.735Z,93225.34
2018-03-29T05:04:53.277Z,93229.41
2018-03-29T05:07:20.831Z,93232.84
2018-03-29T05:09:48.635Z,93237.04
2018-03-29T05:12:16.196Z,93236.67
2018-03-29T05:14:43.797Z,93237.58
2018-03-29T05:17:11.702Z,93237.80
2018-03-29T05:19:39.260Z,93246.50
2018-03-29T05:22:06.819Z,93248.05
2018-03-29T05:24:34.585Z,93257.80
2018-03-29T05:27:03.000Z,93270.06
2018-03-29T05:29:30.547Z,93270.91
2018-03-29T05:31:58.119Z,93271.65
2018-03-29T05:34:25.677Z,93268.38
2018-03-29T05:36:53.225Z,93265.45
2018-03-29T05:39:20.903Z,93259.47
2018-03-29T05:41:48.444Z,93265.80
2018-03-29T05:44:15.984Z,93266.46
2018-03-29T05:46:43.861Z,93269.78
2018-03-29T05:49:11.414Z,93276.84
2018-03-29T05:51:38.969Z,93274.71
2018-03-29T05:54:06.698Z,93280.09
2018-03-29T05:56:34.241Z,93282.28
2018-03-29T05:59:01.794Z,93279.79
2018-03-29T06:01:29.391Z,93290.39
2018-03-29T06:03:56.938Z,93277.81
2018-03-29T06:06:24.503Z,93282.27
2018-03-29T06:08:52.227Z,93277.20
2018-03-29T06:11:19.815Z,93275.59
2018-03-29T06:13:52.849Z,93274.38
2018-03-29T06:16:20.464Z,93274.05
2018-03-29T06:18:48.046Z,93279.44
2018-03-29T06:21:15.598Z,93284.46
2018-03-29T06:23:43.185Z,93279.00
2018-03-29T06:26:10.730Z,93284.69
2018-03-29T06:28:38.286Z,93285.28
2018-03-29T06:31:05.896Z,93284.94
2018-03-29T06:33:33.442Z,93287.08
2018-03-29T06:36:01.007Z,93282.05
2018-03-29T06:38:28.635Z,93286.33
2018-03-29T06:40:56.190Z,93282.06
2018-03-29T06:43:23.738Z,93282.51
2018-03-29T06:45:51.284Z,93281.03
2018-03-29T06:48:18.856Z,93283.09
2018-03-29T06:50:46.450Z,93288.48
2018-03-29T06:53:14.003Z,93297.56
2018-03-29T06:55:41.553Z,93301.58
2018-03-29T06:58:09.252Z,93297.34
2018-03-29T07:00:36.815Z,93304.88
2018-03-29T07:03:04.353Z,93297.78
2018-03-29T07:05:32.060Z,93305.30
2018-03-29T07:07:59.618Z,93311.63
2018-03-29T07:10:27.192Z,93320.06
2018-03-29T07:12:54.769Z,93325.19
2018-03-29T07:15:22.314Z,93327.57
2018-03-29T07:17:49.868Z,93329.79
2018-03-29T07:20:17.457Z,93340.23
2018-03-29T07:22:44.998Z,93339.02
2018-03-29T07:25:12.555Z,93339.77
2018-03-29T07:27:40.429Z,93345.80
2018-03-29T07:30:08.042Z,93347.12
2018-03-29T07:32:35.590Z,93348.63
2018-03-29T07:35:03.461Z,93345.63
2018-03-29T07:37:31.010Z,93344.52
2018-03-29T07:39:58.562Z,93354.32
2018-03-29T07:42:26.184Z,93344.27
2018-03-29T07:44:53.754Z,93355.78
2018-03-29T07:47:21.339Z,93368.56
2018-03-29T07:49:49.067Z,93375.98
2018-03-29T07:52:16.616Z,93379.20
2018-03-29T07:54:44.175Z,93388.04
2018-03-29T07:57:12.057Z,93379.31
2018-03-29T07:59:39.598Z,93389.55
2018-03-29T08:02:07.146Z,93395.87
2018-03-29T08:04:34.894Z,93393.73
2018-03-29T08:07:02.454Z,93394.41
2018-03-29T08:09:30.006Z,93395.91
2018-03-29T08:11:57.611Z,93394.52
2018-03-29T08:14:25.163Z,93392.58
2018-03-29T08:16:52.722Z,93394.13
2018-03-29T08:19:20.452Z,93399.91
2018-03-29T08:21:48.026Z,93397.71
2018-03-29T08:24:15.586Z,93394.95
2018-03-29T08:26:43.181Z,93393.73
2018-03-29T08:29:10.730Z,93395.69
2018-03-29T08:31:38.303Z,93401.02
2018-03-29T08:34:05.991Z,93400.28
2018-03-29T08:36:33.539Z,93405.28
2018-03-29T08:39:01.091Z,93400.31
2018-03-29T08:41:28.960Z,93403.06
2018-03-29T08:43:56.508Z,93396.42
2018-03-29T08:46:24.059Z,93400.73
2018-03-29T08:48:51.686Z,93397.12
2018-03-29T08:51:19.229Z,93402.03
2018-03-29T08:53:46.793Z,93400.56
2018-03-29T08:56:14.668Z,93404.20
2018-03-29T08:58:42.220Z,93403.66
2018-03-29T09:01:09.757Z,93401.72
2018-03-29T09:03:37.500Z,93400.16
2018-03-29T09:06:05.063Z,93399.49
2018-03-29T09:08:32.610Z,93398.69
2018-03-29T09:11:00.315Z,93402.56
2018-03-29T09:13:27.861Z,93398.67
2018-03-29T09:15:55.409Z,93401.35
2018-03-29T09:18:23.918Z,93401.22
2018-03-29T09:20:51.476Z,93400.52
2018-03-29T09:23:19.037Z,93393.34
2018-03-29T09:25:46.648Z,93402.41
2018-03-29T09:28:14.204Z,93398.53
2018-03-29T09:30:41.754Z,93391.52
2018-03-29T09:33:09.358Z,93389.21
2018-03-29T09:35:36.907Z,93388.63
2018-03-29T09:38:04.491Z,93395.86
2018-03-29T09:40:32.183Z,93395.41
2018-03-29T09:42:59.739Z,93389.84
2018-03-29T09:45:27.285Z,93391.64
2018-03-29T09:47:54.876Z,93388.28
2018-03-29T09:50:22.429Z,93388.80
2018-03-29T09:52:49.978Z,93383.88
2018-03-29T09:55:17.577Z,93384.98
2018-03-29T09:57:45.136Z,93380.94
2018-03-29T10:00:12.920Z,93383.58
2018-03-29T10:02:45.872Z,93381.14
2018-03-29T10:05:13.444Z,93382.19
2018-03-29T10:07:41.243Z,93381.37
2018-03-29T10:10:08.988Z,93380.78
2018-03-29T10:12:36.538Z,93373.84
2018-03-29T10:15:04.154Z,93373.94
2018-03-29T10:17:31.780Z,93369.50
2018-03-29T10:19:59.343Z,93368.97
2018-03-29T10:22:26.897Z,93367.05
2018-03-29T10:24:54.637Z,93365.18
2018-03-29T10:27:22.184Z,93362.86
2018-03-29T10:29:49.740Z,93366.77
2018-03-29T10:32:17.441Z,93369.05
2018-03-29T10:34:45.018Z,93362.22
2018-03-29T10:37:12.561Z,93354.41
2018-03-29T10:39:40.173Z,93355.91
2018-03-29T10:42:07.731Z,93348.97
2018-03-29T10:44:35.284Z,93353.31
2018-03-29T10:47:02.871Z,93350.23
2018-03-29T10:49:30.427Z,93357.52
2018-03-29T10:51:57.973Z,93351.63
2018-03-29T10:54:25.554Z,93351.11
2018-03-29T10:56:53.098Z,93344.98
2018-03-29T10:59:20.652Z,93341.47
2018-03-29T11:01:48.326Z,93338.16
2018-03-29T11:04:15.874Z,93337.25
2018-03-29T11:06:43.429Z,93333.29
2018-03-29T11:09:11.042Z,93341.88
2018-03-29T11:11:38.589Z,93337.20
2018-03-29T11:14:06.165Z,93336.77
2018-03-29T11:16:33.763Z,93333.75
2018-03-29T11:19:01.323Z,93329.13
2018-03-29T11:21:28.878Z,93333.48
2018-03-29T11:23:56.587Z,93329.39
2018-03-29T11:26:24.142Z,93330.35
2018-03-29T11:28:51.696Z,93323.86
2018-03-29T11:31:19.279Z,93320.34
2018-03-29T11:33:46.833Z,93326.88
2018-03-29T11:36:14.375Z,93320.86
2018-03-29T11:38:41.954Z,93317.86
2018-03-29T11:41:09.513Z,93310.03
2018-03-29T11:43:37.066Z,93311.42
2018-03-29T11:46:04.618Z,93309.73
2018-03-29T11:48:32.177Z,93309.50
2018-03-29T11:50:59.754Z,93312.55
2018-03-29T11:53:27.311Z,93303.73
2018-03-29T11:55:54.866Z,93308.83
2018-03-29T11:58:22.489Z,93305.17
2018-03-29T12:00:50.036Z,93301.67
2018-03-29T12:03:17.595Z,93299.95
2018-03-29T12:05:45.200Z,93288.16
2018-03-29T12:08:12.764Z,93294.20
2018-03-29T12:10:40.322Z,93275.49
2018-03-29T12:13:08.051Z,93280.73
2018-03-29T12:15:35.623Z,93268.78
2018-03-29T12:18:03.173Z,93271.63
2018-03-29T12:20:30.778Z,93270.50
2018-03-29T12:22:58.386Z,93269.56
2018-03-29T12:25:25.930Z,93276.20
2018-03-29T12:27:53.672Z,93265.55
2018-03-29T12:30:21.227Z,93263.19
2018-03-29T12:32:48.775Z,93262.18
2018-03-29T12:35:16.358Z,93263.75
2018-03-29T12:37:43.904Z,93258.94
2018-03-29T12:40:11.460Z,93257.38
2018-03-29T12:42:39.331Z,93257.52
2018-03-29T12:45:06.936Z,93249.94
2018-03-29T12:47:34.449Z,93254.48
2018-03-29T12:50:02.059Z,93250.20
2018-03-29T12:52:29.620Z,93246.35
2018-03-29T12:55:09.114Z,93248.34
2018-03-29T12:57:48.414Z,93243.23
2018-03-29T13:00:16.005Z,93241.79
2018-03-29T13:02:43.565Z,93247.38
2018-03-29T13:05:11.118Z,93242.78
2018-03-29T13:07:38.849Z,93245.03
2018-03-29T13:10:06.410Z,93242.44
2018-03-29T13:12:33.966Z,93242.40
2018-03-29T13:15:01.557Z,93239.94
2018-03-29T13:17:29.110Z,93242.56
2018-03-29T13:19:58.124Z,93237.75
2018-03-29T13:22:25.751Z,93234.88
2018-03-29T13:24:53.304Z,93239.43
2018-03-29T13:27:20.855Z,93242.02
2018-03-29T13:29:48.733Z,93244.34
2018-03-29T13:32:16.288Z,93240.64
2018-03-29T13:34:43.845Z,93237.05
2018-03-29T13:37:11.582Z,93233.42
2018-03-29T13:39:39.141Z,93235.02
2018-03-29T13:42:06.693Z,93228.77
2018-03-29T13:44:34.463Z,93224.21
2018-03-29T13:47:02.026Z,93222.56
2018-03-29T13:49:29.598Z,93223.88
2018-03-29T13:51:57.205Z,93223.95
2018-03-29T13:54:24.758Z,93223.43
2018-03-29T13:56:52.310Z,93225.25
2018-03-29T13:59:19.885Z,93218.34
2018-03-29T14:01:47.429Z,93219.91
2018-03-29T14:04:15.030Z,93216.02
2018-03-29T14:06:42.623Z,93215.61
2018-03-29T14:09:10.175Z,93213.62
2018-03-29T14:11:37.731Z,93222.69
2018-03-29T14:14:05.431Z,93218.81
2018-03-29T14:16:32.982Z,93212.33
2018-03-29T14:19:00.548Z,93213.17
2018-03-29T14:21:28.273Z,93206.26
2018-03-29T14:23:55.823Z,93201.97
2018-03-29T14:26:23.381Z,93199.77
2018-03-29T14:28:51.110Z,93205.95
2018-03-29T14:31:18.663Z,93209.48
2018-03-29T14:33:46.221Z,93209.45
2018-03-29T14:36:13.915Z,93208.33
2018-03-29T14:38:41.495Z,93204.21
2018-03-29T14:41:09.069Z,93199.33
2018-03-29T14:43:36.763Z,93198.52
2018-03-29T14:46:04.344Z,93205.63
2018-03-29T14:48:31.894Z,93201.17
2018-03-29T14:50:59.576Z,93202.13
2018-03-29T14:53:27.118Z,93209.02
2018-03-29T14:55:54.681Z,93212.63
2018-03-29T14:58:22.281Z,93208.92
2018-03-29T15:00:49.841Z,93208.39
2018-03-29T15:03:17.385Z,93218.81
2018-03-29T15:05:45.078Z,93215.80
2018-03-29T15:08:12.643Z,93216.64
2018-03-29T15:10:40.212Z,93216.91
2018-03-29T15:13:07.825Z,93222.44
2018-03-29T15:15:35.376Z,93220.63
2018-03-29T15:18:02.930Z,93226.77
2018-03-29T15:20:30.663Z,93220.12
2018-03-29T15:22:58.218Z,93221.99
2018-03-29T15:25:25.791Z,93222.02
2018-03-29T15:27:53.380Z,93219.31
2018-03-29T15:30:20.923Z,93221.62
2018-03-29T15:32:48.465Z,93220.97
2018-03-29T15:35:16.052Z,93222.41
2018-03-29T15:37:43.596Z,93226.69
2018-03-29T15:40:11.142Z,93226.13
2018-03-29T15:42:38.738Z,93232.61
2018-03-29T15:45:06.290Z,93230.70
2018-03-29T15:47:33.846Z,93237.45
2018-03-29T15:50:01.585Z,93239.38
2018-03-29T15:52:29.150Z,93237.77
2018-03-29T15:54:56.698Z,93237.80
2018-03-29T15:57:24.299Z,93245.73
2018-03-29T15:59:51.859Z,93252.59
2018-03-29T16:02:19.423Z,93246.78
2018-03-29T16:04:47.019Z,93248.47
2018-03-29T16:07:14.568Z,93251.06
2018-03-29T16:09:42.139Z,93247.45
2018-03-29T16:12:09.874Z,93243.39
2018-03-29T16:14:37.427Z,93250.19
2018-03-29T16:17:04.987Z,93246.56
2018-03-29T16:19:32.721Z,93251.77
2018-03-29T16:22:00.314Z,93248.37
2018-03-29T16:24:27.941Z,93246.80
2018-03-29T16:26:55.481Z,93251.49
2018-03-29T16:29:23.035Z,93255.83
2018-03-29T16:31:50.738Z,93256.51
2018-03-29T16:34:18.309Z,93258.27
2018-03-29T16:36:45.858Z,93263.21
2018-03-29T16:39:13.452Z,93259.22
2018-03-29T16:41:41.001Z,93261.81
2018-03-29T16:44:08.552Z,93266.98
2018-03-29T16:46:36.338Z,93255.45
2018-03-29T16:49:03.943Z,93257.09
2018-03-29T16:51:31.489Z,93262.84
2018-03-29T16:53:59.182Z,93270.86
2018-03-29T16:56:26.747Z,93273.09
2018-03-29T16:58:54.318Z,93278.09
2018-03-29T17:01:21.935Z,93275.12
2018-03-29T17:03:49.501Z,93272.83
2018-03-29T17:06:17.066Z,93274.03
2018-03-29T17:08:44.943Z,93269.27
2018-03-29T17:11:12.533Z,93275.40
2018-03-29T17:13:40.734Z,93281.97
2018-03-29T17:16:08.561Z,93285.08
2018-03-29T17:18:36.208Z,93287.92
2018-03-29T17:21:03.851Z,93294.06
2018-03-29T17:23:31.525Z,93299.34
2018-03-29T17:25:59.108Z,93305.65
2018-03-29T17:28:26.724Z,93313.02
2018-03-29T17:30:54.309Z,93315.48
2018-03-29T17:33:21.876Z,93317.92
2018-03-29T17:35:49.438Z,93319.05
2018-03-29T17:38:17.084Z,93327.64
2018-03-29T17:40:44.668Z,93332.41
2018-03-29T17:43:12.220Z,93332.77
2018-03-29T17:45:39.820Z,93332.64
2018-03-29T17:48:07.418Z,93336.71
2018-03-29T17:50:35.004Z,93345.81
2018-03-29T17:53:02.594Z,93351.52
2018-03-29T17:55:30.167Z,93343.80
2018-03-29T17:57:57.733Z,93352.67
2018-03-29T18:00:25.623Z,93357.44
2018-03-29T18:02:53.178Z,93358.27
2018-03-29T18:05:20.730Z,93360.84
2018-03-29T18:07:48.438Z,93360.83
2018-03-29T18:10:16.004Z,93364.43
2018-03-29T18:12:43.603Z,93364.01
2018-03-29T18:15:11.210Z,93371.52
2018-03-29T18:17:38.769Z,93375.77
2018-03-29T18:20:06.353Z,93374.61
2018-03-29T18:22:33.951Z,93378.02
2018-03-29T18:25:01.512Z,93380.82
2018-03-29T18:27:29.058Z,93385.66
2018-03-29T18:29:56.808Z,93394.16
2018-03-29T18:32:24.364Z,93402.84
2018-03-29T18:34:51.940Z,93408.97
2018-03-29T18:37:19.550Z,93414.40
2018-03-29T18:39:47.127Z,93410.34
2018-03-29T18:42:14.693Z,93426.67
2018-03-29T18:44:42.304Z,93423.37
2018-03-29T18:47:09.863Z,93420.34
2018-03-29T18:49:37.443Z,93421.39
2018-03-29T18:52:05.340Z,93422.47
2018-03-29T18:54:32.913Z,93419.08
2018-03-29T18:57:00.490Z,93421.25
2018-03-29T18:59:28.424Z,93421.89
2018-03-29T19:01:56.005Z,93421.20
2018-03-29T19:04:23.565Z,93424.27
2018-03-29T19:06:51.417Z,93427.92
2018-03-29T19:09:18.997Z,93428.57
2018-03-29T19:11:46.551Z,93425.93
2018-03-29T19:14:14.130Z,93429.16
2018-03-29T19:16:41.710Z,93428.00
2018-03-29T19:19:09.259Z,93437.37
2018-03-29T19:21:37.410Z,93438.45
2018-03-29T19:24:04.978Z,93435.72
2018-03-29T19:26:32.539Z,93434.33
2018-03-29T19:29:00.314Z,93441.59
2018-03-29T19:31:27.867Z,93443.33
2018-03-29T19:33:55.427Z,93440.88
2018-03-29T19:36:23.201Z,93441.78
2018-03-29T19:38:50.766Z,93451.09
2018-03-29T19:41:18.347Z,93448.06
2018-03-29T19:43:46.241Z,93446.97
2018-03-29T19:46:13.814Z,93454.40
2018-03-29T19:48:41.371Z,93450.86
2018-03-29T19:51:08.969Z,93459.95
2018-03-29T19:53:36.657Z,93465.68
2018-03-29T19:56:04.266Z,93467.17
2018-03-29T19:58:31.893Z,93474.54
2018-03-29T20:00:59.467Z,93476.03
2018-03-29T20:03:27.060Z,93479.23
2018-03-29T20:05:54.673Z,93483.99
2018-03-29T20:08:22.248Z,93485.41
2018-03-29T20:10:49.822Z,93485.22
2018-03-29T20:13:17.399Z,93491.25
2018-03-29T20:15:44.985Z,93488.94
2018-03-29T20:18:12.528Z,93490.38
2018-03-29T20:20:40.266Z,93496.78
2018-03-29T20:23:07.819Z,93492.69
2018-03-29T20:25:35.375Z,93493.81
2018-03-29T20:28:02.963Z,93489.20
2018-03-29T20:30:30.531Z,93494.70
2018-03-29T20:32:58.101Z,93489.04
2018-03-29T20:35:25.659Z,93499.58
2018-03-29T20:37:53.227Z,93495.96
2018-03-29T20:40:20.958Z,93494.50
2018-03-29T20:42:48.498Z,93483.89
2018-03-29T20:45:16.060Z,93479.09
2018-03-29T20:47:43.646Z,93485.89
2018-03-29T20:50:11.195Z,93491.42
2018-03-29T20:52:38.742Z,93487.39
2018-03-29T20:55:06.482Z,93492.13
2018-03-29T20:57:34.054Z,93493.48
2018-03-29T21:00:01.605Z,93488.22
2018-03-29T21:02:29.190Z,93486.63
2018-03-29T21:04:56.782Z,93488.33
2018-03-29T21:07:24.322Z,93495.52
2018-03-29T21:09:52.082Z,93505.97
2018-03-29T21:12:19.640Z,93509.33
2018-03-29T21:14:47.190Z,93516.47
2018-03-29T21:17:14.909Z,93516.93
2018-03-29T21:19:42.450Z,93520.75
2018-03-29T21:22:09.992Z,93518.84
2018-03-29T21:24:37.564Z,93517.64
2018-03-29T21:27:05.121Z,93516.23
2018-03-29T21:29:32.679Z,93514.66
2018-03-29T21:32:00.402Z,93508.11
2018-03-29T21:34:27.982Z,93519.39
2018-03-29T21:36:55.551Z,93520.67
2018-03-29T21:39:23.138Z,93520.77
2018-03-29T21:41:50.702Z,93526.64
2018-03-29T21:44:18.254Z,93535.39
2018-03-29T21:46:45.961Z,93528.47
2018-03-29T21:49:13.535Z,93531.45
2018-03-29T21:51:41.089Z,93533.18
2018-03-29T21:54:08.710Z,93538.16
2018-03-29T21:56:36.266Z,93537.44
2018-03-29T21:59:03.818Z,93539.97
2018-03-29T22:01:31.542Z,93537.14
2018-03-29T22:03:59.086Z,93539.25
2018-03-29T22:06:26.638Z,93546.27
2018-03-29T22:08:54.237Z,93547.13
2018-03-29T22:11:21.794Z,93550.48
2018-03-29T22:13:50.285Z,93555.11
2018-03-29T22:16:17.871Z,93554.39
2018-03-29T22:18:45.427Z,93557.36
2018-03-29T22:21:12.979Z,93554.91
2018-03-29T22:23:40.663Z,93565.67
2018-03-29T22:26:08.218Z,93566.88
2018-03-29T22:28:35.785Z,93569.67
2018-03-29T22:31:03.382Z,93565.98
2018-03-29T22:33:30.923Z,93564.40
2018-03-29T22:35:58.485Z,93568.92
2018-03-29T22:38:26.045Z,93566.88
2018-03-29T22:40:53.591Z,93565.23
2018-03-29T22:43:21.138Z,93566.51
2018-03-29T22:45:48.725Z,93569.41
2018-03-29T22:48:16.311Z,93574.41
2018-03-29T22:50:43.890Z,93583.59
2018-03-29T22:53:11.614Z,93583.63
2018-03-29T22:55:39.170Z,93575.79
2018-03-29T22:58:06.711Z,93582.00
2018-03-29T23:00:36.319Z,93586.55
2018-03-29T23:03:03.884Z,93585.00
2018-03-29T23:05:31.421Z,93584.17
2018-03-29T23:07:59.156Z,93579.66
2018-03-29T23:10:26.715Z,93589.23
2018-03-29T23:12:54.272Z,93583.13
2018-03-29T23:15:21.846Z,93596.44
2018-03-29T23:17:49.400Z,93596.08
2018-03-29T23:20:16.974Z,93598.66
2018-03-29T23:22:44.554Z,93614.38
2018-03-29T23:25:12.091Z,93604.92
2018-03-29T23:27:39.626Z,93614.53
2018-03-29T23:30:07.210Z,93611.72
2018-03-29T23:32:34.757Z,93606.81
2018-03-29T23:35:02.316Z,93608.91
2018-03-29T23:37:29.934Z,93609.36
2018-03-29T23:39:57.488Z,93611.42
2018-03-29T23:42:25.038Z,93614.32
2018-03-29T23:44:52.768Z,93612.22
2018-03-29T23:47:20.312Z,93617.16
2018-03-29T23:49:47.854Z,93616.30
2018-03-29T23:52:15.540Z,93614.20
2018-03-29T23:54:43.086Z,93615.06
2018-03-29T23:57:10.622Z,93622.09
2018-03-29T23:59:38.503Z,93630.75
